sensor_id;sensor_type;location;lat;lon;timestamp;temperature;humidity
22185;DHT22;11258;52.516;13.318;2022-07-31T00:01:14;21.10;99.90
22185;DHT22;11258;52.516;13.318;2022-07-31T00:03:40;21.10;99.90
22185;DHT22;11258;52.516;13.318;2022-07-31T00:06:07;21.10;99.90
22185;DHT22;11258;52.516;13.318;2022-07-31T00:08:33;21.00;99.90
22185;DHT22;11258;52.516;13.318;2022-07-31T00:10:59;21.00;99.90
22185;DHT22;11258;52.516;13.318;2022-07-31T00:13:24;21.10;99.90
22185;DHT22;11258;52.516;13.318;2022-07-31T00:15:50;21.10;99.90
22185;DHT22;11258;52.516;13.318;2022-07-31T00:18:15;21.00;99.90
22185;DHT22;11258;52.516;13.318;2022-07-31T00:20:41;21.00;99.90
22185;DHT22;11258;52.516;13.318;2022-07-31T00:23:08;21.00;99.90
22185;DHT22;11258;52.516;13.318;2022-07-31T00:25:34;21.00;99.90
22185;DHT22;11258;52.516;13.318;2022-07-31T00:28:00;20.90;99.90
22185;DHT22;11258;52.516;13.318;2022-07-31T00:30:25;20.90;99.90
22185;DHT22;11258;52.516;13.318;2022-07-31T00:32:51;20.90;99.90
22185;DHT22;11258;52.516;13.318;2022-07-31T00:35:17;20.90;99.90
22185;DHT22;11258;52.516;13.318;2022-07-31T00:37:43;20.90;99.90
22185;DHT22;11258;52.516;13.318;2022-07-31T00:40:11;20.80;99.90
22185;DHT22;11258;52.516;13.318;2022-07-31T00:42:37;20.80;99.90
22185;DHT22;11258;52.516;13.318;2022-07-31T00:45:04;20.80;99.90
22185;DHT22;11258;52.516;13.318;2022-07-31T00:47:29;20.80;99.90
22185;DHT22;11258;52.516;13.318;2022-07-31T00:49:55;20.70;99.90
22185;DHT22;11258;52.516;13.318;2022-07-31T00:52:21;20.80;99.90
22185;DHT22;11258;52.516;13.318;2022-07-31T00:54:47;20.80;99.90
22185;DHT22;11258;52.516;13.318;2022-07-31T00:57:13;20.80;99.90
22185;DHT22;11258;52.516;13.318;2022-07-31T00:59:39;20.80;99.90
22185;DHT22;11258;52.516;13.318;2022-07-31T01:02:05;20.80;99.90
22185;DHT22;11258;52.516;13.318;2022-07-31T01:04:32;20.70;99.90
22185;DHT22;11258;52.516;13.318;2022-07-31T01:06:58;20.70;99.90
22185;DHT22;11258;52.516;13.318;2022-07-31T01:09:25;20.60;99.90
22185;DHT22;11258;52.516;13.318;2022-07-31T01:14:33;20.60;99.90
22185;DHT22;11258;52.516;13.318;2022-07-31T01:17:00;20.60;99.90
22185;DHT22;11258;52.516;13.318;2022-07-31T01:19:38;20.60;99.90
22185;DHT22;11258;52.516;13.318;2022-07-31T01:31:08;20.60;99.90
22185;DHT22;11258;52.516;13.318;2022-07-31T01:33:47;20.50;99.90
22185;DHT22;11258;52.516;13.318;2022-07-31T01:36:18;20.40;99.90
22185;DHT22;11258;52.516;13.318;2022-07-31T01:38:46;20.40;99.90
22185;DHT22;11258;52.516;13.318;2022-07-31T01:41:15;20.40;99.90
22185;DHT22;11258;52.516;13.318;2022-07-31T01:43:46;20.40;99.90
22185;DHT22;11258;52.516;13.318;2022-07-31T01:46:14;20.30;99.90
22185;DHT22;11258;52.516;13.318;2022-07-31T01:48:41;20.30;99.90
22185;DHT22;11258;52.516;13.318;2022-07-31T01:51:09;20.20;99.90
22185;DHT22;11258;52.516;13.318;2022-07-31T01:53:36;20.20;99.90
22185;DHT22;11258;52.516;13.318;2022-07-31T01:56:04;20.20;99.90
22185;DHT22;11258;52.516;13.318;2022-07-31T01:58:36;20.00;99.90
22185;DHT22;11258;52.516;13.318;2022-07-31T02:01:05;20.00;99.90
22185;DHT22;11258;52.516;13.318;2022-07-31T02:03:33;20.00;99.90
22185;DHT22;11258;52.516;13.318;2022-07-31T02:06:00;20.00;99.90
22185;DHT22;11258;52.516;13.318;2022-07-31T02:08:28;20.00;99.90
22185;DHT22;11258;52.516;13.318;2022-07-31T02:10:55;19.90;99.90
22185;DHT22;11258;52.516;13.318;2022-07-31T02:13:21;19.90;99.90
22185;DHT22;11258;52.516;13.318;2022-07-31T02:15:49;19.90;99.90
22185;DHT22;11258;52.516;13.318;2022-07-31T02:18:17;19.80;99.90
22185;DHT22;11258;52.516;13.318;2022-07-31T02:20:45;19.70;99.90
22185;DHT22;11258;52.516;13.318;2022-07-31T02:23:11;19.70;99.90
22185;DHT22;11258;52.516;13.318;2022-07-31T02:25:38;19.70;99.90
22185;DHT22;11258;52.516;13.318;2022-07-31T02:28:07;19.70;99.90
22185;DHT22;11258;52.516;13.318;2022-07-31T02:30:34;19.60;99.90
22185;DHT22;11258;52.516;13.318;2022-07-31T02:33:01;19.60;99.90
22185;DHT22;11258;52.516;13.318;2022-07-31T02:35:28;19.70;99.90
22185;DHT22;11258;52.516;13.318;2022-07-31T02:37:54;19.60;99.90
22185;DHT22;11258;52.516;13.318;2022-07-31T02:40:21;19.60;99.90
22185;DHT22;11258;52.516;13.318;2022-07-31T02:42:49;19.50;99.90
22185;DHT22;11258;52.516;13.318;2022-07-31T02:45:17;19.40;99.90
22185;DHT22;11258;52.516;13.318;2022-07-31T02:47:43;19.40;99.90
22185;DHT22;11258;52.516;13.318;2022-07-31T02:50:10;19.40;99.90
22185;DHT22;11258;52.516;13.318;2022-07-31T02:52:37;19.40;99.90
22185;DHT22;11258;52.516;13.318;2022-07-31T02:55:03;19.40;99.90
22185;DHT22;11258;52.516;13.318;2022-07-31T02:57:29;19.40;99.90
22185;DHT22;11258;52.516;13.318;2022-07-31T02:59:54;19.40;99.90
22185;DHT22;11258;52.516;13.318;2022-07-31T03:02:20;19.40;99.90
22185;DHT22;11258;52.516;13.318;2022-07-31T03:04:46;19.40;99.90
22185;DHT22;11258;52.516;13.318;2022-07-31T03:07:11;19.30;99.90
22185;DHT22;11258;52.516;13.318;2022-07-31T03:09:37;19.30;99.90
22185;DHT22;11258;52.516;13.318;2022-07-31T03:12:03;19.30;99.90
22185;DHT22;11258;52.516;13.318;2022-07-31T03:14:29;19.30;99.90
22185;DHT22;11258;52.516;13.318;2022-07-31T03:16:56;19.20;99.90
22185;DHT22;11258;52.516;13.318;2022-07-31T03:19:23;19.20;99.90
22185;DHT22;11258;52.516;13.318;2022-07-31T03:21:49;19.10;99.90
22185;DHT22;11258;52.516;13.318;2022-07-31T03:24:16;19.00;99.90
22185;DHT22;11258;52.516;13.318;2022-07-31T03:26:42;19.00;99.90
22185;DHT22;11258;52.516;13.318;2022-07-31T03:29:07;19.00;99.90
22185;DHT22;11258;52.516;13.318;2022-07-31T03:31:33;19.00;99.90
22185;DHT22;11258;52.516;13.318;2022-07-31T03:33:59;19.00;99.90
22185;DHT22;11258;52.516;13.318;2022-07-31T03:36:25;19.00;99.90
22185;DHT22;11258;52.516;13.318;2022-07-31T03:38:51;19.10;99.90
22185;DHT22;11258;52.516;13.318;2022-07-31T03:41:17;19.00;99.90
22185;DHT22;11258;52.516;13.318;2022-07-31T03:43:43;19.10;99.90
22185;DHT22;11258;52.516;13.318;2022-07-31T03:46:10;19.00;99.90
22185;DHT22;11258;52.516;13.318;2022-07-31T03:48:36;19.20;99.90
22185;DHT22;11258;52.516;13.318;2022-07-31T03:51:02;19.20;99.90
22185;DHT22;11258;52.516;13.318;2022-07-31T03:53:28;19.20;99.90
22185;DHT22;11258;52.516;13.318;2022-07-31T03:55:55;19.20;99.90
22185;DHT22;11258;52.516;13.318;2022-07-31T03:58:21;19.20;99.90
22185;DHT22;11258;52.516;13.318;2022-07-31T04:00:48;19.30;99.90
22185;DHT22;11258;52.516;13.318;2022-07-31T04:03:14;19.40;99.90
22185;DHT22;11258;52.516;13.318;2022-07-31T04:05:40;20.10;99.90
22185;DHT22;11258;52.516;13.318;2022-07-31T04:08:07;21.30;99.90
22185;DHT22;11258;52.516;13.318;2022-07-31T04:10:34;22.20;99.90
22185;DHT22;11258;52.516;13.318;2022-07-31T04:13:01;22.80;99.90
22185;DHT22;11258;52.516;13.318;2022-07-31T04:15:27;23.50;99.90
22185;DHT22;11258;52.516;13.318;2022-07-31T04:17:52;23.90;99.90
22185;DHT22;11258;52.516;13.318;2022-07-31T04:20:18;24.60;99.90
22185;DHT22;11258;52.516;13.318;2022-07-31T04:22:46;25.00;99.90
22185;DHT22;11258;52.516;13.318;2022-07-31T04:25:11;25.40;99.90
22185;DHT22;11258;52.516;13.318;2022-07-31T04:27:37;25.80;99.90
22185;DHT22;11258;52.516;13.318;2022-07-31T04:30:03;26.10;99.90
22185;DHT22;11258;52.516;13.318;2022-07-31T04:32:29;26.30;99.90
22185;DHT22;11258;52.516;13.318;2022-07-31T04:34:55;26.50;99.90
22185;DHT22;11258;52.516;13.318;2022-07-31T04:37:20;26.50;99.90
22185;DHT22;11258;52.516;13.318;2022-07-31T04:39:46;25.60;99.90
22185;DHT22;11258;52.516;13.318;2022-07-31T04:42:11;24.60;99.90
22185;DHT22;11258;52.516;13.318;2022-07-31T04:44:38;24.10;99.90
22185;DHT22;11258;52.516;13.318;2022-07-31T04:47:04;25.00;99.90
22185;DHT22;11258;52.516;13.318;2022-07-31T04:49:31;26.40;99.90
22185;DHT22;11258;52.516;13.318;2022-07-31T04:51:58;27.20;99.90
22185;DHT22;11258;52.516;13.318;2022-07-31T04:54:24;27.70;99.90
22185;DHT22;11258;52.516;13.318;2022-07-31T04:56:49;28.10;99.90
22185;DHT22;11258;52.516;13.318;2022-07-31T04:59:17;28.60;99.90
22185;DHT22;11258;52.516;13.318;2022-07-31T05:01:45;28.70;99.90
22185;DHT22;11258;52.516;13.318;2022-07-31T05:04:10;28.90;99.90
22185;DHT22;11258;52.516;13.318;2022-07-31T05:06:47;29.30;99.90
22185;DHT22;11258;52.516;13.318;2022-07-31T05:09:18;29.80;99.90
22185;DHT22;11258;52.516;13.318;2022-07-31T05:11:48;30.20;99.90
22185;DHT22;11258;52.516;13.318;2022-07-31T05:14:15;30.20;99.90
22185;DHT22;11258;52.516;13.318;2022-07-31T05:16:41;30.50;99.90
22185;DHT22;11258;52.516;13.318;2022-07-31T05:19:08;30.80;99.90
22185;DHT22;11258;52.516;13.318;2022-07-31T05:21:33;31.10;99.90
22185;DHT22;11258;52.516;13.318;2022-07-31T05:24:00;31.00;99.90
22185;DHT22;11258;52.516;13.318;2022-07-31T05:26:27;31.50;99.90
22185;DHT22;11258;52.516;13.318;2022-07-31T05:28:54;31.30;99.90
22185;DHT22;11258;52.516;13.318;2022-07-31T05:31:21;31.50;99.90
22185;DHT22;11258;52.516;13.318;2022-07-31T05:33:48;31.80;99.90
22185;DHT22;11258;52.516;13.318;2022-07-31T05:36:15;32.30;99.90
22185;DHT22;11258;52.516;13.318;2022-07-31T05:38:41;32.80;99.00
22185;DHT22;11258;52.516;13.318;2022-07-31T05:41:07;33.00;97.90
22185;DHT22;11258;52.516;13.318;2022-07-31T05:43:33;33.40;97.00
22185;DHT22;11258;52.516;13.318;2022-07-31T05:45:59;32.70;97.00
22185;DHT22;11258;52.516;13.318;2022-07-31T05:48:25;32.60;96.70
22185;DHT22;11258;52.516;13.318;2022-07-31T05:50:51;32.50;95.60
22185;DHT22;11258;52.516;13.318;2022-07-31T05:53:17;32.50;95.10
22185;DHT22;11258;52.516;13.318;2022-07-31T05:55:44;32.40;94.80
22185;DHT22;11258;52.516;13.318;2022-07-31T05:58:10;32.30;94.80
22185;DHT22;11258;52.516;13.318;2022-07-31T06:00:37;31.80;95.00
22185;DHT22;11258;52.516;13.318;2022-07-31T06:03:03;31.40;95.50
22185;DHT22;11258;52.516;13.318;2022-07-31T06:05:30;31.40;95.60
22185;DHT22;11258;52.516;13.318;2022-07-31T06:07:56;31.40;95.80
22185;DHT22;11258;52.516;13.318;2022-07-31T06:10:22;31.40;96.10
22185;DHT22;11258;52.516;13.318;2022-07-31T06:12:48;31.80;95.90
22185;DHT22;11258;52.516;13.318;2022-07-31T06:15:14;32.10;95.60
22185;DHT22;11258;52.516;13.318;2022-07-31T06:17:43;32.80;94.80
22185;DHT22;11258;52.516;13.318;2022-07-31T06:20:10;33.10;94.30
22185;DHT22;11258;52.516;13.318;2022-07-31T06:22:37;33.10;93.90
22185;DHT22;11258;52.516;13.318;2022-07-31T06:25:08;33.00;93.50
22185;DHT22;11258;52.516;13.318;2022-07-31T06:27:34;33.10;93.30
22185;DHT22;11258;52.516;13.318;2022-07-31T06:30:02;33.00;93.40
22185;DHT22;11258;52.516;13.318;2022-07-31T06:32:28;33.80;92.70
22185;DHT22;11258;52.516;13.318;2022-07-31T06:34:53;34.10;92.10
22185;DHT22;11258;52.516;13.318;2022-07-31T06:37:19;34.10;92.10
22185;DHT22;11258;52.516;13.318;2022-07-31T06:39:44;34.20;91.30
22185;DHT22;11258;52.516;13.318;2022-07-31T06:42:10;34.20;91.30
22185;DHT22;11258;52.516;13.318;2022-07-31T06:44:35;34.60;90.90
22185;DHT22;11258;52.516;13.318;2022-07-31T06:47:01;34.50;90.80
22185;DHT22;11258;52.516;13.318;2022-07-31T06:49:27;35.10;90.30
22185;DHT22;11258;52.516;13.318;2022-07-31T06:51:52;34.80;89.20
22185;DHT22;11258;52.516;13.318;2022-07-31T06:54:18;34.70;88.90
22185;DHT22;11258;52.516;13.318;2022-07-31T06:56:44;34.70;89.40
22185;DHT22;11258;52.516;13.318;2022-07-31T06:59:09;35.00;89.00
22185;DHT22;11258;52.516;13.318;2022-07-31T07:01:35;35.50;88.30
22185;DHT22;11258;52.516;13.318;2022-07-31T07:04:01;35.40;86.80
22185;DHT22;11258;52.516;13.318;2022-07-31T07:06:27;35.30;86.80
22185;DHT22;11258;52.516;13.318;2022-07-31T07:08:52;35.50;86.40
22185;DHT22;11258;52.516;13.318;2022-07-31T07:11:18;35.70;86.20
22185;DHT22;11258;52.516;13.318;2022-07-31T07:13:44;35.80;86.20
22185;DHT22;11258;52.516;13.318;2022-07-31T07:16:10;35.80;84.90
22185;DHT22;11258;52.516;13.318;2022-07-31T07:18:36;36.20;84.50
22185;DHT22;11258;52.516;13.318;2022-07-31T07:21:02;36.40;83.20
22185;DHT22;11258;52.516;13.318;2022-07-31T07:23:29;36.60;83.20
22185;DHT22;11258;52.516;13.318;2022-07-31T07:25:54;36.20;83.20
22185;DHT22;11258;52.516;13.318;2022-07-31T07:28:20;35.80;83.70
22185;DHT22;11258;52.516;13.318;2022-07-31T07:30:45;35.60;83.90
22185;DHT22;11258;52.516;13.318;2022-07-31T07:33:11;36.30;83.60
22185;DHT22;11258;52.516;13.318;2022-07-31T07:35:37;36.50;83.00
22185;DHT22;11258;52.516;13.318;2022-07-31T07:38:04;36.50;82.30
22185;DHT22;11258;52.516;13.318;2022-07-31T07:40:29;37.00;82.50
22185;DHT22;11258;52.516;13.318;2022-07-31T07:42:55;36.90;80.50
22185;DHT22;11258;52.516;13.318;2022-07-31T07:45:21;37.30;80.90
22185;DHT22;11258;52.516;13.318;2022-07-31T07:47:46;37.40;79.80
22185;DHT22;11258;52.516;13.318;2022-07-31T07:50:12;37.10;79.60
22185;DHT22;11258;52.516;13.318;2022-07-31T07:52:40;37.50;79.60
22185;DHT22;11258;52.516;13.318;2022-07-31T07:55:06;37.60;78.70
22185;DHT22;11258;52.516;13.318;2022-07-31T07:57:33;37.10;78.80
22185;DHT22;11258;52.516;13.318;2022-07-31T08:00:00;36.60;79.80
22185;DHT22;11258;52.516;13.318;2022-07-31T08:02:25;36.20;80.40
22185;DHT22;11258;52.516;13.318;2022-07-31T08:04:51;36.20;81.00
22185;DHT22;11258;52.516;13.318;2022-07-31T08:07:25;36.30;80.50
22185;DHT22;11258;52.516;13.318;2022-07-31T08:09:50;36.50;80.90
22185;DHT22;11258;52.516;13.318;2022-07-31T08:12:16;36.50;80.40
22185;DHT22;11258;52.516;13.318;2022-07-31T08:14:41;37.00;80.20
22185;DHT22;11258;52.516;13.318;2022-07-31T08:17:11;36.30;80.70
22185;DHT22;11258;52.516;13.318;2022-07-31T08:19:37;36.50;80.50
22185;DHT22;11258;52.516;13.318;2022-07-31T08:22:02;36.70;80.20
22185;DHT22;11258;52.516;13.318;2022-07-31T08:24:28;36.50;79.90
22185;DHT22;11258;52.516;13.318;2022-07-31T08:26:53;36.10;80.50
22185;DHT22;11258;52.516;13.318;2022-07-31T08:29:38;36.20;81.50
22185;DHT22;11258;52.516;13.318;2022-07-31T08:32:04;36.40;80.70
22185;DHT22;11258;52.516;13.318;2022-07-31T08:34:30;36.90;80.40
22185;DHT22;11258;52.516;13.318;2022-07-31T08:36:55;37.20;79.00
22185;DHT22;11258;52.516;13.318;2022-07-31T08:39:21;37.10;78.30
22185;DHT22;11258;52.516;13.318;2022-07-31T08:41:46;37.00;78.60
22185;DHT22;11258;52.516;13.318;2022-07-31T08:44:12;36.80;78.10
22185;DHT22;11258;52.516;13.318;2022-07-31T08:46:38;36.30;79.00
22185;DHT22;11258;52.516;13.318;2022-07-31T08:49:06;36.10;79.90
22185;DHT22;11258;52.516;13.318;2022-07-31T08:51:36;36.10;79.70
22185;DHT22;11258;52.516;13.318;2022-07-31T08:54:06;35.90;79.80
22185;DHT22;11258;52.516;13.318;2022-07-31T08:56:35;36.00;79.20
22185;DHT22;11258;52.516;13.318;2022-07-31T08:59:05;36.30;79.80
22185;DHT22;11258;52.516;13.318;2022-07-31T09:01:35;36.40;79.10
22185;DHT22;11258;52.516;13.318;2022-07-31T09:04:02;36.40;78.70
22185;DHT22;11258;52.516;13.318;2022-07-31T09:06:27;36.30;78.50
22185;DHT22;11258;52.516;13.318;2022-07-31T09:08:55;36.30;78.70
22185;DHT22;11258;52.516;13.318;2022-07-31T09:11:21;36.30;79.30
22185;DHT22;11258;52.516;13.318;2022-07-31T09:13:54;36.30;79.10
22185;DHT22;11258;52.516;13.318;2022-07-31T09:16:21;36.10;79.40
22185;DHT22;11258;52.516;13.318;2022-07-31T09:19:03;35.50;80.50
22185;DHT22;11258;52.516;13.318;2022-07-31T09:21:40;35.10;81.00
22185;DHT22;11258;52.516;13.318;2022-07-31T09:24:07;35.00;82.30
22185;DHT22;11258;52.516;13.318;2022-07-31T09:26:35;35.00;82.00
22185;DHT22;11258;52.516;13.318;2022-07-31T09:29:01;34.40;83.00
22185;DHT22;11258;52.516;13.318;2022-07-31T09:31:33;33.80;84.40
22185;DHT22;11258;52.516;13.318;2022-07-31T09:33:59;33.40;85.90
22185;DHT22;11258;52.516;13.318;2022-07-31T09:36:25;33.50;87.00
22185;DHT22;11258;52.516;13.318;2022-07-31T09:38:50;33.90;85.40
22185;DHT22;11258;52.516;13.318;2022-07-31T09:41:18;34.20;85.80
22185;DHT22;11258;52.516;13.318;2022-07-31T09:43:58;34.40;85.60
22185;DHT22;11258;52.516;13.318;2022-07-31T09:46:25;33.70;85.30
22185;DHT22;11258;52.516;13.318;2022-07-31T09:48:54;33.40;85.70
22185;DHT22;11258;52.516;13.318;2022-07-31T09:51:20;33.20;86.50
22185;DHT22;11258;52.516;13.318;2022-07-31T09:53:48;33.40;86.60
22185;DHT22;11258;52.516;13.318;2022-07-31T09:56:33;33.00;87.70
22185;DHT22;11258;52.516;13.318;2022-07-31T09:58:59;33.00;87.90
22185;DHT22;11258;52.516;13.318;2022-07-31T10:01:25;33.20;87.50
22185;DHT22;11258;52.516;13.318;2022-07-31T10:03:52;33.20;87.20
22185;DHT22;11258;52.516;13.318;2022-07-31T10:06:19;33.40;87.00
22185;DHT22;11258;52.516;13.318;2022-07-31T10:08:45;33.10;87.20
22185;DHT22;11258;52.516;13.318;2022-07-31T10:11:12;33.10;87.90
22185;DHT22;11258;52.516;13.318;2022-07-31T10:13:45;32.70;86.70
22185;DHT22;11258;52.516;13.318;2022-07-31T10:16:11;32.00;87.80
22185;DHT22;11258;52.516;13.318;2022-07-31T10:18:38;31.60;89.60
22185;DHT22;11258;52.516;13.318;2022-07-31T10:21:06;32.10;89.00
22185;DHT22;11258;52.516;13.318;2022-07-31T10:23:33;32.00;88.40
22185;DHT22;11258;52.516;13.318;2022-07-31T10:26:03;32.30;88.80
22185;DHT22;11258;52.516;13.318;2022-07-31T10:28:29;32.80;88.50
22185;DHT22;11258;52.516;13.318;2022-07-31T10:30:56;33.00;88.00
22185;DHT22;11258;52.516;13.318;2022-07-31T10:33:22;32.60;87.60
22185;DHT22;11258;52.516;13.318;2022-07-31T10:38:46;31.90;88.10
22185;DHT22;11258;52.516;13.318;2022-07-31T10:41:53;32.10;89.30
22185;DHT22;11258;52.516;13.318;2022-07-31T10:44:33;32.60;88.40
22185;DHT22;11258;52.516;13.318;2022-07-31T10:47:11;32.40;88.30
22185;DHT22;11258;52.516;13.318;2022-07-31T10:49:41;32.40;87.20
22185;DHT22;11258;52.516;13.318;2022-07-31T10:52:07;32.30;86.90
22185;DHT22;11258;52.516;13.318;2022-07-31T10:54:45;31.50;88.60
22185;DHT22;11258;52.516;13.318;2022-07-31T10:57:24;31.80;88.30
22185;DHT22;11258;52.516;13.318;2022-07-31T10:59:51;31.50;88.30
22185;DHT22;11258;52.516;13.318;2022-07-31T11:02:30;31.80;89.60
22185;DHT22;11258;52.516;13.318;2022-07-31T11:07:35;32.00;88.30
22185;DHT22;11258;52.516;13.318;2022-07-31T11:10:18;31.90;89.40
22185;DHT22;11258;52.516;13.318;2022-07-31T11:12:45;31.50;90.30
22185;DHT22;11258;52.516;13.318;2022-07-31T11:15:37;30.90;90.80
22185;DHT22;11258;52.516;13.318;2022-07-31T11:18:19;30.80;91.20
22185;DHT22;11258;52.516;13.318;2022-07-31T11:20:45;30.80;91.00
22185;DHT22;11258;52.516;13.318;2022-07-31T11:23:13;31.00;91.20
22185;DHT22;11258;52.516;13.318;2022-07-31T11:25:43;31.00;91.10
22185;DHT22;11258;52.516;13.318;2022-07-31T11:28:14;31.60;91.10
22185;DHT22;11258;52.516;13.318;2022-07-31T11:33:42;31.30;90.10
22185;DHT22;11258;52.516;13.318;2022-07-31T11:38:37;30.80;90.90
22185;DHT22;11258;52.516;13.318;2022-07-31T11:41:04;31.00;90.70
22185;DHT22;11258;52.516;13.318;2022-07-31T11:43:30;30.90;90.70
22185;DHT22;11258;52.516;13.318;2022-07-31T11:45:56;31.10;90.80
22185;DHT22;11258;52.516;13.318;2022-07-31T11:48:22;31.10;90.40
22185;DHT22;11258;52.516;13.318;2022-07-31T11:50:49;30.90;90.80
22185;DHT22;11258;52.516;13.318;2022-07-31T11:53:16;31.30;90.90
22185;DHT22;11258;52.516;13.318;2022-07-31T11:55:50;31.40;91.10
22185;DHT22;11258;52.516;13.318;2022-07-31T11:58:19;31.70;90.20
22185;DHT22;11258;52.516;13.318;2022-07-31T12:00:51;31.60;89.90
22185;DHT22;11258;52.516;13.318;2022-07-31T12:03:18;31.20;89.90
22185;DHT22;11258;52.516;13.318;2022-07-31T12:05:48;30.60;91.00
22185;DHT22;11258;52.516;13.318;2022-07-31T12:08:15;30.30;90.50
22185;DHT22;11258;52.516;13.318;2022-07-31T12:10:41;29.90;91.00
22185;DHT22;11258;52.516;13.318;2022-07-31T12:13:17;29.60;91.80
22185;DHT22;11258;52.516;13.318;2022-07-31T12:16:06;29.80;92.20
22185;DHT22;11258;52.516;13.318;2022-07-31T12:18:54;29.60;92.90
22185;DHT22;11258;52.516;13.318;2022-07-31T12:21:33;29.60;93.30
22185;DHT22;11258;52.516;13.318;2022-07-31T12:23:59;29.40;93.50
22185;DHT22;11258;52.516;13.318;2022-07-31T12:26:31;29.40;93.60
22185;DHT22;11258;52.516;13.318;2022-07-31T12:29:05;29.60;93.70
22185;DHT22;11258;52.516;13.318;2022-07-31T12:31:49;29.70;93.40
22185;DHT22;11258;52.516;13.318;2022-07-31T12:34:29;29.90;93.40
22185;DHT22;11258;52.516;13.318;2022-07-31T12:37:02;30.00;93.30
22185;DHT22;11258;52.516;13.318;2022-07-31T12:39:30;30.40;93.20
22185;DHT22;11258;52.516;13.318;2022-07-31T12:41:55;30.40;92.60
22185;DHT22;11258;52.516;13.318;2022-07-31T12:44:21;30.00;92.40
22185;DHT22;11258;52.516;13.318;2022-07-31T12:46:47;29.70;92.70
22185;DHT22;11258;52.516;13.318;2022-07-31T12:49:13;29.60;92.60
22185;DHT22;11258;52.516;13.318;2022-07-31T12:51:39;29.90;92.90
22185;DHT22;11258;52.516;13.318;2022-07-31T12:54:05;30.10;92.10
22185;DHT22;11258;52.516;13.318;2022-07-31T12:56:35;30.00;92.00
22185;DHT22;11258;52.516;13.318;2022-07-31T12:59:01;30.20;92.10
22185;DHT22;11258;52.516;13.318;2022-07-31T13:01:27;30.40;92.00
22185;DHT22;11258;52.516;13.318;2022-07-31T13:03:53;30.40;91.50
22185;DHT22;11258;52.516;13.318;2022-07-31T13:06:21;30.60;91.40
22185;DHT22;11258;52.516;13.318;2022-07-31T13:08:47;30.80;91.50
22185;DHT22;11258;52.516;13.318;2022-07-31T13:11:12;30.70;90.80
22185;DHT22;11258;52.516;13.318;2022-07-31T13:13:38;30.70;91.00
22185;DHT22;11258;52.516;13.318;2022-07-31T13:16:04;29.90;91.10
22185;DHT22;11258;52.516;13.318;2022-07-31T13:18:29;30.00;91.40
22185;DHT22;11258;52.516;13.318;2022-07-31T13:20:56;30.00;91.00
22185;DHT22;11258;52.516;13.318;2022-07-31T13:23:22;30.10;91.30
22185;DHT22;11258;52.516;13.318;2022-07-31T13:25:48;30.20;91.20
22185;DHT22;11258;52.516;13.318;2022-07-31T13:28:13;30.50;91.20
22185;DHT22;11258;52.516;13.318;2022-07-31T13:30:39;30.50;90.90
22185;DHT22;11258;52.516;13.318;2022-07-31T13:33:05;30.60;91.20
22185;DHT22;11258;52.516;13.318;2022-07-31T13:35:31;30.60;91.10
22185;DHT22;11258;52.516;13.318;2022-07-31T13:37:56;30.60;91.10
22185;DHT22;11258;52.516;13.318;2022-07-31T13:40:23;30.60;90.80
22185;DHT22;11258;52.516;13.318;2022-07-31T13:43:08;30.50;90.70
22185;DHT22;11258;52.516;13.318;2022-07-31T13:45:34;30.40;91.10
22185;DHT22;11258;52.516;13.318;2022-07-31T13:48:00;30.60;91.00
22185;DHT22;11258;52.516;13.318;2022-07-31T13:50:25;30.60;90.80
22185;DHT22;11258;52.516;13.318;2022-07-31T13:52:51;30.60;90.70
22185;DHT22;11258;52.516;13.318;2022-07-31T13:55:17;30.10;90.00
22185;DHT22;11258;52.516;13.318;2022-07-31T13:57:42;30.00;90.20
22185;DHT22;11258;52.516;13.318;2022-07-31T14:00:08;30.00;90.40
22185;DHT22;11258;52.516;13.318;2022-07-31T14:02:34;30.20;90.10
22185;DHT22;11258;52.516;13.318;2022-07-31T14:05:00;30.30;90.00
22185;DHT22;11258;52.516;13.318;2022-07-31T14:07:25;30.00;88.90
22185;DHT22;11258;52.516;13.318;2022-07-31T14:09:51;30.00;89.70
22185;DHT22;11258;52.516;13.318;2022-07-31T14:12:16;29.90;89.80
22185;DHT22;11258;52.516;13.318;2022-07-31T14:14:42;30.10;90.00
22185;DHT22;11258;52.516;13.318;2022-07-31T14:17:07;30.10;89.30
22185;DHT22;11258;52.516;13.318;2022-07-31T14:19:33;30.20;89.50
22185;DHT22;11258;52.516;13.318;2022-07-31T14:21:58;30.30;89.40
22185;DHT22;11258;52.516;13.318;2022-07-31T14:24:24;30.10;89.50
22185;DHT22;11258;52.516;13.318;2022-07-31T14:26:50;30.20;89.80
22185;DHT22;11258;52.516;13.318;2022-07-31T14:29:16;30.20;89.50
22185;DHT22;11258;52.516;13.318;2022-07-31T14:31:41;29.90;88.80
22185;DHT22;11258;52.516;13.318;2022-07-31T14:34:07;30.10;89.40
22185;DHT22;11258;52.516;13.318;2022-07-31T14:36:32;30.00;89.20
22185;DHT22;11258;52.516;13.318;2022-07-31T14:38:58;29.70;87.80
22185;DHT22;11258;52.516;13.318;2022-07-31T14:41:23;29.60;88.40
22185;DHT22;11258;52.516;13.318;2022-07-31T14:43:49;29.50;88.30
22185;DHT22;11258;52.516;13.318;2022-07-31T14:46:15;29.50;88.10
22185;DHT22;11258;52.516;13.318;2022-07-31T14:48:40;29.60;87.80
22185;DHT22;11258;52.516;13.318;2022-07-31T14:51:06;29.60;87.40
22185;DHT22;11258;52.516;13.318;2022-07-31T14:53:31;29.50;87.90
22185;DHT22;11258;52.516;13.318;2022-07-31T14:55:57;29.30;88.00
22185;DHT22;11258;52.516;13.318;2022-07-31T14:58:22;29.50;88.30
22185;DHT22;11258;52.516;13.318;2022-07-31T15:00:48;29.50;88.50
22185;DHT22;11258;52.516;13.318;2022-07-31T15:03:14;29.60;88.80
22185;DHT22;11258;52.516;13.318;2022-07-31T15:05:39;29.70;88.60
22185;DHT22;11258;52.516;13.318;2022-07-31T15:08:05;29.80;87.60
22185;DHT22;11258;52.516;13.318;2022-07-31T15:10:31;29.80;87.10
22185;DHT22;11258;52.516;13.318;2022-07-31T15:12:57;29.80;87.80
22185;DHT22;11258;52.516;13.318;2022-07-31T15:15:22;29.90;87.90
22185;DHT22;11258;52.516;13.318;2022-07-31T15:17:48;30.00;87.50
22185;DHT22;11258;52.516;13.318;2022-07-31T15:20:13;29.90;86.30
22185;DHT22;11258;52.516;13.318;2022-07-31T15:22:39;30.00;86.50
22185;DHT22;11258;52.516;13.318;2022-07-31T15:25:05;29.90;86.00
22185;DHT22;11258;52.516;13.318;2022-07-31T15:27:31;29.90;86.60
22185;DHT22;11258;52.516;13.318;2022-07-31T15:29:56;29.80;86.80
22185;DHT22;11258;52.516;13.318;2022-07-31T15:32:22;29.70;87.00
22185;DHT22;11258;52.516;13.318;2022-07-31T15:34:47;29.50;86.40
22185;DHT22;11258;52.516;13.318;2022-07-31T15:37:13;29.50;86.80
22185;DHT22;11258;52.516;13.318;2022-07-31T15:39:39;29.30;85.50